Jackson Junction, Iowa
Current Conditions -  °F | °C
As of 8:35 AM on Friday 24 Oct 2014 (Local Time) from KDEH Reporting Station
Moderate Fog Moderate Fog  
Wind Chill: 10°   Ceiling: 200
Heat Index: 10°   Visibility: 0mi
Dew Point: 10°   Wind: 7mph
Humidity: 100%   Direction: 160°SSE
Pressure: 29.97"   Gusts: NA
Location:  43.0382°N, 92.0219°W
Report Text: KDEH 241335Z AUTO 16006KT M1/4SM FG OVC002 10/10 A2997 RMK AO2
Loading
Personal Weather Stations






























Interactive Weather Map
Tropical Storm Tracking
New forecast layout! Learn more

10-Day Weather Forecast

Advertisements
Track Severe Weather on mobile